KBTV/BTV METAR and TAF weather

Enter ICAO airport designator
Station Type Date Time Source
KBTV METAR 2020/10/20 16:54 UTC NOAA

KBTV 201654Z 35010KT 7SM -RA OVC003 11/09 A3022 RMK AO2 SLP234 P0002 T01110094


Station Type Date Time Source
KBTV Decoded METAR 2020/10/20 16:54 UTC NOAA

BURLINGTON INTERNATIONAL, VT, United States (KBTV) 44-28N 73-09W 105M
Oct 20, 2020 - 12:54 PM EDT / 2020.10.20 1654 UTC
Wind: from the N (350 degrees) at 12 MPH (10 KT):0
Visibility: 7 mile(s):0
Sky conditions: overcast
Weather: light rain
Precipitation last hour: 0.02 inches
Temperature: 52.0 F (11.1 C)
Dew Point: 48.9 F (9.4 C)
Relative Humidity: 89%
Pressure (altimeter): 30.22 in. Hg (1023 hPa)
ob: KBTV 201654Z 35010KT 7SM -RA OVC003 11/09 A3022 RMK AO2 SLP234 P0002 T01110094
cycle: 17

Station Type Date Time Source
KBTV TAF 2020/10/20 17:36 UTC NOAA

TAF
AMD KBTV 201633Z 2017/2112 35010KT P6SM -SHRA BKN007 OVC025
FM201730 35009KT P6SM VCSH BKN015
FM202000 33008KT P6SM VCSH OVC020
FM202200 35006KT P6SM OVC035
FM210600 VRB04KT P6SM VCSH OVC030

Example: see airport list